createdAt,value
2023-05-19T00:00:25.012Z,62.80
2023-05-19T00:03:13.216Z,62.87
2023-05-19T00:05:45.825Z,62.33
2023-05-19T00:08:13.515Z,62.56
2023-05-19T00:10:41.818Z,62.78
2023-05-19T00:13:09.889Z,62.76
2023-05-19T00:15:38.344Z,62.68
2023-05-19T00:18:09.130Z,63.05
2023-05-19T00:20:38.286Z,63.43
2023-05-19T00:23:06.045Z,63.39
2023-05-19T00:25:33.987Z,63.15
2023-05-19T00:28:03.309Z,63.40
2023-05-19T00:30:31.394Z,63.63
2023-05-19T00:32:59.527Z,63.15
2023-05-19T00:35:27.529Z,63.18
2023-05-19T00:37:55.644Z,63.13
2023-05-19T00:40:24.627Z,63.08
2023-05-19T00:42:52.688Z,63.28
2023-05-19T00:45:20.951Z,63.70
2023-05-19T00:47:49.994Z,63.36
2023-05-19T00:50:17.901Z,63.80
2023-05-19T00:52:45.937Z,63.99
2023-05-19T00:55:14.828Z,64.14
2023-05-19T00:57:43.988Z,64.11
2023-05-19T01:00:12.607Z,64.10
2023-05-19T01:02:40.969Z,64.45
2023-05-19T01:05:09.710Z,64.55
2023-05-19T01:07:38.229Z,64.47
2023-05-19T01:10:06.932Z,64.47
2023-05-19T01:12:35.090Z,64.10
2023-05-19T01:15:05.702Z,64.22
2023-05-19T01:17:43.321Z,64.25
2023-05-19T01:20:35.533Z,64.42
2023-05-19T01:23:09.530Z,64.81
2023-05-19T01:25:59.109Z,65.18
2023-05-19T01:29:04.899Z,64.96
2023-05-19T01:31:33.584Z,65.03
2023-05-19T01:34:01.635Z,65.22
2023-05-19T01:36:30.111Z,65.35
2023-05-19T01:38:58.820Z,65.58
2023-05-19T01:41:28.702Z,65.41
2023-05-19T01:43:57.195Z,65.32
2023-05-19T01:46:25.251Z,65.42
2023-05-19T01:48:53.650Z,65.38
2023-05-19T01:51:21.638Z,65.62
2023-05-19T01:53:49.402Z,65.67
2023-05-19T01:56:22.648Z,65.80
2023-05-19T01:59:00.017Z,65.66
2023-05-19T02:01:31.381Z,65.69
2023-05-19T02:04:40.284Z,65.68
2023-05-19T02:07:17.516Z,65.82
2023-05-19T02:09:51.860Z,66.18
2023-05-19T02:12:25.241Z,66.22
2023-05-19T02:15:16.907Z,66.12
2023-05-19T02:17:50.810Z,66.30
2023-05-19T02:20:19.106Z,66.41
2023-05-19T02:22:46.898Z,66.15
2023-05-19T02:25:14.907Z,66.39
2023-05-19T02:27:42.864Z,66.22
2023-05-19T02:30:10.992Z,66.41
2023-05-19T02:32:38.894Z,66.48
2023-05-19T02:35:06.855Z,66.07
2023-05-19T02:37:35.588Z,66.59
2023-05-19T02:40:04.468Z,66.46
2023-05-19T02:42:32.155Z,66.59
2023-05-19T02:45:00.511Z,67.00
2023-05-19T02:47:28.509Z,66.84
2023-05-19T02:49:56.345Z,66.76
2023-05-19T02:52:24.268Z,66.87
2023-05-19T02:54:52.236Z,67.09
2023-05-19T02:57:20.161Z,66.89
2023-05-19T02:59:48.165Z,66.94
2023-05-19T03:02:16.071Z,66.97
2023-05-19T03:04:44.130Z,66.86
2023-05-19T03:07:14.391Z,66.97
2023-05-19T03:09:42.530Z,67.09
2023-05-19T03:12:10.522Z,67.38
2023-05-19T03:14:38.714Z,67.25
2023-05-19T03:17:10.925Z,67.43
2023-05-19T03:19:38.687Z,67.34
2023-05-19T03:22:06.618Z,67.50
2023-05-19T03:24:34.756Z,67.67
2023-05-19T03:27:02.986Z,67.23
2023-05-19T03:29:31.258Z,67.60
2023-05-19T03:31:59.956Z,67.79
2023-05-19T03:34:28.082Z,67.68
2023-05-19T03:36:57.240Z,67.91
2023-05-19T03:39:25.219Z,67.84
2023-05-19T03:41:53.014Z,67.70
2023-05-19T03:44:23.767Z,67.97
2023-05-19T03:46:51.940Z,67.92
2023-05-19T03:49:19.800Z,68.03
2023-05-19T03:51:51.768Z,67.98
2023-05-19T03:54:21.265Z,67.56
2023-05-19T03:56:49.169Z,67.83
2023-05-19T03:59:17.168Z,67.97
2023-05-19T04:01:45.326Z,67.79
2023-05-19T04:04:13.282Z,67.91
2023-05-19T04:06:41.282Z,67.83
2023-05-19T04:09:16.262Z,67.77
2023-05-19T04:11:44.308Z,68.24
2023-05-19T04:14:12.674Z,68.36
2023-05-19T04:16:40.616Z,68.21
2023-05-19T04:19:08.616Z,68.12
2023-05-19T04:21:36.769Z,68.17
2023-05-19T04:24:06.691Z,68.08
2023-05-19T04:26:34.757Z,67.75
2023-05-19T04:29:04.834Z,68.05
2023-05-19T04:31:34.574Z,67.78
2023-05-19T04:34:02.696Z,68.02
2023-05-19T04:36:31.522Z,67.73
2023-05-19T04:39:02.895Z,68.21
2023-05-19T04:41:30.812Z,67.84
2023-05-19T04:43:58.861Z,68.24
2023-05-19T04:46:27.042Z,68.00
2023-05-19T04:48:55.664Z,68.28
2023-05-19T04:51:29.806Z,68.06
2023-05-19T04:53:58.445Z,68.11
2023-05-19T04:56:27.615Z,68.15
2023-05-19T04:58:55.417Z,68.03
2023-05-19T05:01:26.263Z,67.95
2023-05-19T05:03:55.741Z,67.89
2023-05-19T05:06:23.683Z,67.69
2023-05-19T05:08:52.476Z,67.76
2023-05-19T05:11:20.672Z,68.00
2023-05-19T05:13:49.165Z,68.13
2023-05-19T05:16:17.513Z,67.96
2023-05-19T05:18:47.110Z,68.09
2023-05-19T05:21:15.162Z,68.07
2023-05-19T05:23:43.318Z,67.51
2023-05-19T05:26:17.683Z,67.93
2023-05-19T05:28:46.064Z,67.67
2023-05-19T05:31:14.018Z,67.29
2023-05-19T05:33:43.371Z,67.52
2023-05-19T05:36:11.401Z,67.26
2023-05-19T05:38:39.240Z,67.36
2023-05-19T05:41:09.665Z,67.81
2023-05-19T05:43:37.802Z,67.36
2023-05-19T05:46:05.823Z,67.61
2023-05-19T05:48:34.194Z,67.55
2023-05-19T05:51:02.218Z,67.49
2023-05-19T05:53:32.439Z,67.19
2023-05-19T05:56:00.653Z,67.72
2023-05-19T05:58:28.945Z,67.44
2023-05-19T06:00:57.965Z,67.26
2023-05-19T06:03:26.142Z,67.67
2023-05-19T06:05:54.175Z,67.73
2023-05-19T06:08:22.271Z,67.34
2023-05-19T06:10:50.220Z,67.68
2023-05-19T06:13:22.425Z,67.44
2023-05-19T06:15:51.310Z,67.93
2023-05-19T06:18:19.329Z,67.86
2023-05-19T06:20:47.206Z,67.78
2023-05-19T06:23:15.049Z,68.11
2023-05-19T06:25:43.051Z,68.06
2023-05-19T06:28:11.197Z,67.65
2023-05-19T06:30:39.111Z,67.45
2023-05-19T06:33:06.998Z,67.75
2023-05-19T06:35:34.996Z,67.64
2023-05-19T06:38:02.906Z,67.98
2023-05-19T06:40:31.119Z,68.17
2023-05-19T06:42:59.095Z,68.55
2023-05-19T06:45:27.007Z,68.09
2023-05-19T06:47:55.763Z,68.36
2023-05-19T06:50:23.504Z,68.79
2023-05-19T06:52:51.611Z,68.27
2023-05-19T06:55:19.726Z,68.33
2023-05-19T06:57:47.717Z,68.50
2023-05-19T07:00:18.830Z,68.52
2023-05-19T07:02:48.666Z,68.27
2023-05-19T07:05:16.781Z,68.40
2023-05-19T07:07:44.885Z,68.40
2023-05-19T07:10:12.881Z,68.48
2023-05-19T07:12:40.726Z,68.99
2023-05-19T07:15:08.664Z,68.69
2023-05-19T07:17:36.833Z,68.40
2023-05-19T07:20:07.804Z,68.56
2023-05-19T07:22:36.725Z,68.72
2023-05-19T07:25:04.845Z,68.92
2023-05-19T07:27:32.701Z,68.63
2023-05-19T07:30:00.427Z,68.58
2023-05-19T07:32:28.454Z,68.67
2023-05-19T07:34:56.548Z,68.80
2023-05-19T07:37:24.372Z,68.74
2023-05-19T07:39:52.415Z,68.39
2023-05-19T07:42:20.320Z,68.10
2023-05-19T07:44:48.174Z,68.01
2023-05-19T07:47:16.244Z,68.17
2023-05-19T07:49:44.189Z,68.01
2023-05-19T07:52:12.017Z,68.11
2023-05-19T07:54:40.263Z,68.00
2023-05-19T07:57:08.175Z,68.45
2023-05-19T07:59:36.030Z,68.85
2023-05-19T08:02:04.069Z,68.83
2023-05-19T08:04:32.270Z,68.64
2023-05-19T08:07:00.225Z,69.04
2023-05-19T08:09:28.276Z,68.75
2023-05-19T08:11:56.351Z,68.98
2023-05-19T08:14:24.055Z,68.36
2023-05-19T08:16:52.256Z,68.80
2023-05-19T08:19:20.146Z,68.40
2023-05-19T08:21:48.636Z,68.80
2023-05-19T08:24:16.645Z,68.83
2023-05-19T08:26:44.782Z,68.78
2023-05-19T08:29:12.770Z,68.70
2023-05-19T08:31:40.990Z,68.66
2023-05-19T08:34:09.570Z,68.55
2023-05-19T08:36:37.500Z,68.46
2023-05-19T08:39:05.530Z,68.33
2023-05-19T08:41:33.313Z,68.16
2023-05-19T08:44:01.391Z,68.48
2023-05-19T08:46:29.526Z,67.89
2023-05-19T08:49:10.308Z,68.09
2023-05-19T08:51:44.735Z,67.62
2023-05-19T08:54:16.111Z,67.67
2023-05-19T08:56:45.650Z,67.65
2023-05-19T08:59:15.411Z,67.77
2023-05-19T09:01:45.988Z,67.78
2023-05-19T09:04:14.558Z,66.90
2023-05-19T09:06:45.471Z,67.08
2023-05-19T09:09:13.640Z,67.47
2023-05-19T09:11:46.252Z,66.82
2023-05-19T09:14:14.110Z,67.01
2023-05-19T09:16:42.138Z,67.22
2023-05-19T09:19:15.720Z,67.01
2023-05-19T09:21:45.910Z,67.40
2023-05-19T09:24:14.037Z,67.53
2023-05-19T09:26:42.879Z,66.79
2023-05-19T09:29:15.731Z,66.89
2023-05-19T09:31:52.832Z,67.10
2023-05-19T09:34:22.513Z,66.92
2023-05-19T09:36:51.933Z,66.85
2023-05-19T09:39:21.699Z,66.76
2023-05-19T09:41:58.730Z,66.47
2023-05-19T09:44:31.391Z,66.45
2023-05-19T09:47:00.298Z,66.63
2023-05-19T09:49:30.176Z,67.09
2023-05-19T09:51:59.905Z,66.34
2023-05-19T09:54:32.526Z,66.74
2023-05-19T09:57:01.704Z,66.59
2023-05-19T09:59:32.989Z,66.65
2023-05-19T10:02:02.822Z,66.95
2023-05-19T10:04:31.760Z,66.95
2023-05-19T10:07:00.986Z,66.73
2023-05-19T10:09:29.885Z,66.21
2023-05-19T10:11:59.269Z,66.33
2023-05-19T10:14:29.430Z,66.69
2023-05-19T10:16:59.501Z,66.53
2023-05-19T10:19:29.213Z,66.33
2023-05-19T10:21:57.317Z,66.27
2023-05-19T10:24:25.317Z,66.38
2023-05-19T10:27:05.775Z,66.21
2023-05-19T10:29:36.753Z,65.95
2023-05-19T10:32:12.065Z,65.75
2023-05-19T10:34:50.536Z,66.44
2023-05-19T10:37:31.448Z,65.92
2023-05-19T10:39:59.568Z,66.14
2023-05-19T10:42:52.539Z,66.31
2023-05-19T10:45:22.629Z,66.28
2023-05-19T10:47:51.732Z,66.72
2023-05-19T10:50:20.536Z,66.62
2023-05-19T10:52:57.110Z,66.33
2023-05-19T10:55:48.243Z,66.44
2023-05-19T10:58:16.718Z,66.68
2023-05-19T11:00:44.465Z,66.57
2023-05-19T11:03:16.699Z,65.91
2023-05-19T11:05:46.503Z,65.36
2023-05-19T11:08:14.898Z,65.86
2023-05-19T11:10:46.569Z,65.94
2023-05-19T11:13:22.632Z,65.86
2023-05-19T11:15:51.380Z,66.11
2023-05-19T11:18:19.937Z,65.89
2023-05-19T11:20:58.581Z,65.97
2023-05-19T11:23:26.989Z,66.35
2023-05-19T11:25:54.944Z,66.44
2023-05-19T11:28:29.378Z,66.58
2023-05-19T11:30:59.262Z,66.53
2023-05-19T11:33:30.150Z,66.73
2023-05-19T11:35:58.769Z,67.08
2023-05-19T11:38:28.454Z,67.26
2023-05-19T11:40:56.686Z,67.73
2023-05-19T11:43:26.126Z,67.83
2023-05-19T11:45:55.007Z,67.85
2023-05-19T11:48:23.747Z,68.19
2023-05-19T11:50:52.644Z,68.35
2023-05-19T11:53:21.113Z,68.31
2023-05-19T11:55:49.816Z,68.30
2023-05-19T11:58:18.521Z,68.12
2023-05-19T12:00:47.668Z,68.18
2023-05-19T12:03:17.758Z,68.22
2023-05-19T12:05:48.937Z,68.36
2023-05-19T12:08:18.888Z,68.26
2023-05-19T12:10:53.022Z,68.32
2023-05-19T12:13:22.961Z,68.28
2023-05-19T12:15:53.241Z,68.11
2023-05-19T12:18:21.498Z,68.41
2023-05-19T12:20:49.662Z,68.18
2023-05-19T12:23:17.873Z,67.88
2023-05-19T12:25:45.854Z,67.87
2023-05-19T12:28:13.958Z,67.71
2023-05-19T12:30:48.151Z,67.47
2023-05-19T12:33:16.593Z,67.22
2023-05-19T12:35:44.572Z,67.57
2023-05-19T12:38:14.589Z,67.55
2023-05-19T12:40:43.900Z,67.49
2023-05-19T12:43:25.310Z,67.33
2023-05-19T12:45:53.538Z,67.47
2023-05-19T12:48:24.911Z,67.74
2023-05-19T12:50:56.038Z,67.66
2023-05-19T12:53:27.019Z,67.60
2023-05-19T12:55:56.057Z,67.72
2023-05-19T12:58:24.517Z,67.85
2023-05-19T13:00:58.595Z,67.55
2023-05-19T13:03:26.456Z,67.48
2023-05-19T13:05:54.571Z,67.59
2023-05-19T13:08:24.089Z,67.84
2023-05-19T13:10:52.315Z,67.89
2023-05-19T13:13:20.080Z,67.77
2023-05-19T13:15:49.286Z,67.81
2023-05-19T13:18:17.543Z,67.99
2023-05-19T13:20:46.981Z,68.18
2023-05-19T13:23:15.180Z,67.94
2023-05-19T13:25:43.286Z,67.54
2023-05-19T13:28:11.330Z,67.87
2023-05-19T13:30:41.020Z,67.19
2023-05-19T13:33:08.974Z,67.62
2023-05-19T13:35:37.996Z,67.66
2023-05-19T13:38:07.174Z,67.70
2023-05-19T13:40:35.471Z,67.90
2023-05-19T13:43:04.164Z,68.09
2023-05-19T13:45:32.375Z,67.87
2023-05-19T13:48:00.463Z,67.78
2023-05-19T13:50:28.611Z,68.00
2023-05-19T13:52:56.528Z,67.98
2023-05-19T13:55:26.566Z,67.81
2023-05-19T13:57:54.516Z,67.98
2023-05-19T14:00:22.622Z,67.39
2023-05-19T14:02:50.608Z,67.77
2023-05-19T14:05:18.916Z,67.48
2023-05-19T14:07:47.162Z,67.77
2023-05-19T14:10:15.081Z,67.55
2023-05-19T14:13:04.925Z,67.72
2023-05-19T14:15:34.634Z,67.63
2023-05-19T14:18:04.655Z,68.08
2023-05-19T14:20:32.886Z,67.81
2023-05-19T14:23:00.932Z,67.80
2023-05-19T14:25:28.653Z,67.90
2023-05-19T14:27:56.778Z,67.94
2023-05-19T14:30:24.573Z,68.05
2023-05-19T14:32:52.766Z,68.12
2023-05-19T14:35:21.179Z,67.96
2023-05-19T14:37:49.193Z,67.96
2023-05-19T14:40:17.086Z,67.96
2023-05-19T14:42:45.030Z,67.82
2023-05-19T14:45:12.982Z,67.78
2023-05-19T14:47:40.919Z,67.81
2023-05-19T14:50:09.039Z,67.87
2023-05-19T14:52:36.924Z,68.11
2023-05-19T14:55:05.396Z,68.04
2023-05-19T14:57:33.232Z,67.67
2023-05-19T15:00:01.073Z,67.83
2023-05-19T15:02:29.722Z,67.70
2023-05-19T15:04:57.835Z,67.80
2023-05-19T15:07:26.214Z,67.86
2023-05-19T15:09:54.263Z,67.98
2023-05-19T15:12:22.211Z,67.74
2023-05-19T15:14:50.127Z,67.93
2023-05-19T15:17:18.153Z,67.94
2023-05-19T15:19:46.289Z,68.05
2023-05-19T15:22:14.492Z,68.17
2023-05-19T15:24:42.562Z,68.28
2023-05-19T15:27:10.882Z,68.29
2023-05-19T15:29:38.795Z,68.10
2023-05-19T15:32:07.163Z,68.04
2023-05-19T15:34:35.088Z,67.66
2023-05-19T15:37:02.924Z,67.79
2023-05-19T15:39:31.564Z,67.15
2023-05-19T15:41:59.510Z,67.51
2023-05-19T15:44:29.001Z,67.74
2023-05-19T15:46:57.304Z,67.98
2023-05-19T15:49:25.338Z,67.76
2023-05-19T15:51:53.453Z,67.51
2023-05-19T15:54:21.620Z,67.59
2023-05-19T15:56:49.521Z,67.42
2023-05-19T15:59:17.662Z,67.92
2023-05-19T16:01:45.593Z,67.67
2023-05-19T16:04:13.691Z,67.57
2023-05-19T16:06:41.699Z,67.59
2023-05-19T16:09:09.587Z,67.54
2023-05-19T16:11:37.327Z,67.38
2023-05-19T16:14:05.332Z,67.34
2023-05-19T16:16:33.360Z,67.55
2023-05-19T16:19:01.460Z,67.63
2023-05-19T16:21:29.276Z,67.72
2023-05-19T16:23:57.209Z,67.92
2023-05-19T16:26:24.992Z,67.75
2023-05-19T16:28:52.890Z,67.70
2023-05-19T16:31:20.697Z,67.41
2023-05-19T16:33:48.617Z,67.58
2023-05-19T16:36:16.547Z,67.68
2023-05-19T16:38:44.741Z,67.63
2023-05-19T16:41:12.701Z,67.78
2023-05-19T16:43:40.477Z,67.73
2023-05-19T16:46:10.081Z,67.79
2023-05-19T16:48:38.238Z,67.48
2023-05-19T16:51:06.424Z,67.85
2023-05-19T16:53:34.306Z,67.91
2023-05-19T16:56:02.431Z,67.93
2023-05-19T16:58:31.017Z,68.24
2023-05-19T17:00:59.158Z,68.15
2023-05-19T17:03:27.492Z,67.92
2023-05-19T17:05:55.728Z,67.98
2023-05-19T17:08:23.558Z,68.19
2023-05-19T17:10:51.500Z,67.99
2023-05-19T17:13:19.456Z,68.02
2023-05-19T17:15:52.573Z,68.25
2023-05-19T17:18:20.419Z,68.20
2023-05-19T17:20:48.579Z,68.23
2023-05-19T17:23:17.100Z,68.30
2023-05-19T17:25:44.894Z,68.57
2023-05-19T17:28:12.809Z,68.35
2023-05-19T17:30:42.932Z,68.44
2023-05-19T17:33:11.147Z,68.37
2023-05-19T17:35:39.192Z,68.34
2023-05-19T17:38:07.231Z,68.18
2023-05-19T17:40:36.938Z,68.37
2023-05-19T17:43:06.190Z,68.58
2023-05-19T17:45:34.430Z,68.72
2023-05-19T17:48:02.385Z,68.87
2023-05-19T17:50:30.602Z,68.71
2023-05-19T17:52:58.819Z,68.81
2023-05-19T17:55:30.135Z,68.65
2023-05-19T17:57:58.429Z,68.58
2023-05-19T18:00:26.641Z,68.70
2023-05-19T18:02:56.958Z,68.59
2023-05-19T18:05:25.916Z,68.59
2023-05-19T18:07:57.350Z,68.65
2023-05-19T18:10:26.379Z,68.81
2023-05-19T18:12:54.192Z,68.53
2023-05-19T18:15:22.165Z,68.75
2023-05-19T18:17:50.206Z,68.67
2023-05-19T18:20:18.457Z,68.86
2023-05-19T18:22:47.137Z,69.01
2023-05-19T18:25:15.053Z,69.03
2023-05-19T18:27:43.953Z,68.79
2023-05-19T18:30:12.367Z,68.83
2023-05-19T18:32:40.098Z,68.80
2023-05-19T18:35:09.183Z,68.64
2023-05-19T18:37:37.263Z,68.55
2023-05-19T18:40:05.894Z,68.51
2023-05-19T18:42:33.955Z,68.61
2023-05-19T18:45:01.788Z,68.73
2023-05-19T18:47:29.931Z,68.60
2023-05-19T18:49:57.818Z,68.73
2023-05-19T18:52:27.159Z,68.95
2023-05-19T18:54:55.162Z,69.26
2023-05-19T18:57:23.204Z,69.40
2023-05-19T18:59:51.209Z,69.49
2023-05-19T19:02:19.124Z,69.27
2023-05-19T19:04:47.070Z,69.19
2023-05-19T19:07:15.275Z,69.20
2023-05-19T19:09:43.967Z,69.19
2023-05-19T19:12:11.989Z,69.14
2023-05-19T19:14:39.960Z,69.37
2023-05-19T19:17:08.172Z,69.57
2023-05-19T19:19:36.539Z,69.50
2023-05-19T19:22:04.782Z,69.59
2023-05-19T19:24:32.866Z,69.72
2023-05-19T19:27:00.942Z,69.61
2023-05-19T19:29:28.962Z,69.56
2023-05-19T19:31:57.045Z,69.65
2023-05-19T19:34:25.128Z,69.57
2023-05-19T19:36:52.907Z,69.43
2023-05-19T19:39:20.708Z,69.47
2023-05-19T19:41:48.635Z,69.63
2023-05-19T19:44:16.683Z,69.48
2023-05-19T19:46:44.918Z,70.03
2023-05-19T19:49:13.082Z,69.86
2023-05-19T19:51:41.144Z,70.08
2023-05-19T19:54:09.114Z,70.12
2023-05-19T19:56:36.967Z,70.10
2023-05-19T19:59:04.872Z,69.97
2023-05-19T20:01:33.807Z,70.24
2023-05-19T20:04:02.155Z,70.15
2023-05-19T20:06:30.967Z,70.18
2023-05-19T20:08:59.329Z,70.41
2023-05-19T20:11:27.373Z,70.53
2023-05-19T20:13:55.266Z,70.58
2023-05-19T20:16:24.335Z,70.41
2023-05-19T20:18:52.307Z,70.42
2023-05-19T20:21:20.472Z,70.41
2023-05-19T20:23:50.591Z,70.37
2023-05-19T20:26:18.419Z,70.45
2023-05-19T20:28:46.673Z,70.40
2023-05-19T20:31:14.423Z,70.54
2023-05-19T20:33:42.508Z,70.70
2023-05-19T20:36:11.172Z,70.62
2023-05-19T20:38:39.007Z,70.74
2023-05-19T20:41:07.722Z,70.66
2023-05-19T20:43:38.343Z,70.62
2023-05-19T20:46:06.187Z,70.69
2023-05-19T20:48:34.170Z,70.79
2023-05-19T20:51:02.317Z,70.93
2023-05-19T20:53:30.146Z,70.75
2023-05-19T20:55:58.312Z,70.95
2023-05-19T20:58:30.333Z,70.82
2023-05-19T21:00:58.446Z,71.10
2023-05-19T21:03:27.332Z,71.04
2023-05-19T21:05:55.832Z,71.12
2023-05-19T21:08:25.171Z,71.15
2023-05-19T21:10:53.205Z,71.01
2023-05-19T21:13:21.283Z,71.00
2023-05-19T21:15:49.423Z,70.99
2023-05-19T21:18:17.301Z,71.19
2023-05-19T21:20:45.107Z,71.17
2023-05-19T21:23:13.011Z,71.38
2023-05-19T21:25:41.507Z,71.52
2023-05-19T21:28:10.449Z,71.27
2023-05-19T21:30:38.207Z,71.42
2023-05-19T21:33:06.074Z,71.32
2023-05-19T21:35:34.099Z,71.17
2023-05-19T21:38:11.978Z,71.28
2023-05-19T21:40:50.274Z,71.34
2023-05-19T21:43:18.228Z,71.45
2023-05-19T21:45:45.922Z,71.32
2023-05-19T21:48:14.001Z,71.54
2023-05-19T21:50:41.863Z,71.64
2023-05-19T21:53:09.625Z,71.79
2023-05-19T21:55:38.035Z,71.49
2023-05-19T21:58:06.270Z,71.53
2023-05-19T22:00:34.427Z,71.50
2023-05-19T22:03:02.622Z,71.52
2023-05-19T22:05:31.325Z,71.47
2023-05-19T22:07:59.177Z,71.49
2023-05-19T22:10:27.496Z,71.81
2023-05-19T22:12:55.650Z,71.78
2023-05-19T22:15:23.657Z,71.98
2023-05-19T22:17:51.874Z,72.03
2023-05-19T22:20:19.912Z,72.21
2023-05-19T22:22:47.656Z,72.01
2023-05-19T22:25:16.053Z,71.96
2023-05-19T22:27:43.764Z,72.21
2023-05-19T22:30:12.489Z,71.92
2023-05-19T22:32:40.555Z,72.03
2023-05-19T22:35:08.505Z,72.10
2023-05-19T22:37:36.603Z,72.03
2023-05-19T22:40:04.813Z,72.25
2023-05-19T22:42:32.717Z,72.45
2023-05-19T22:45:00.819Z,72.39
2023-05-19T22:47:29.849Z,72.32
2023-05-19T22:49:57.648Z,72.55
2023-05-19T22:52:26.069Z,72.30
2023-05-19T22:54:53.956Z,72.24
2023-05-19T22:57:21.695Z,72.24
2023-05-19T22:59:49.519Z,72.71
2023-05-19T23:02:18.484Z,72.57
2023-05-19T23:04:46.426Z,72.74
2023-05-19T23:07:17.152Z,72.90
2023-05-19T23:09:45.118Z,72.59
2023-05-19T23:12:12.945Z,72.46
2023-05-19T23:14:40.954Z,72.70
2023-05-19T23:17:08.885Z,72.56
2023-05-19T23:19:37.196Z,72.55
2023-05-19T23:22:05.262Z,72.67
2023-05-19T23:24:33.234Z,72.77
2023-05-19T23:27:01.263Z,72.61
2023-05-19T23:29:29.290Z,72.88
2023-05-19T23:31:57.105Z,72.70
2023-05-19T23:34:25.083Z,72.81
2023-05-19T23:36:53.347Z,72.97
2023-05-19T23:39:22.199Z,72.88
2023-05-19T23:41:50.080Z,72.72
2023-05-19T23:44:18.508Z,72.66
2023-05-19T23:46:46.625Z,72.57
2023-05-19T23:49:14.653Z,72.53
2023-05-19T23:51:42.544Z,72.83
2023-05-19T23:54:10.385Z,73.00
2023-05-19T23:56:38.360Z,73.01
2023-05-19T23:59:06.503Z,72.77
